• Join FlightAware (Why Join?)
  • Login
  • US Flag 
01:28AM EDT


 

Airport Tracker/Info


-or-


 

Live Flight TrackerFlight Track Log ✈ VH-SMM ✈ 05-May-2014 ✈ YBAF - YLIS / LSY

Flight Track Log - Related Links

Times and Time Zones

All times are in EDT time to prevent confusion due to time zone crossing. See the VH-SMM flight status page for this flight to view local times or setup timezone preferences in your user account.

Time Position Orientation Groundspeed Altitude Reporting Facility
EDT Latitude Longitude Course Direction KTS MPH feet Rate Location/Type
10:55PM -27.5719 152.9743 172° South 86 99 800  Level Aus ATC (RADAR)
10:55PM -27.5835 152.9760 172° South 109 125 1,100 60 Climbing Aus ATC (RADAR)
10:58PM -27.6494 153.0376 140° Southeast 119 137 1,000 120 Descending Aus ATC (RADAR)
10:59PM -27.6923 153.0553 160° South 105 121 1,600 540 Climbing Aus ATC (RADAR)
11:01PM -27.7369 153.0418 195° South 100 115 2,900 720 Climbing Aus ATC (RADAR)
11:03PM -27.7829 153.0269 196° South 105 121 4,100 660 Climbing Aus ATC (RADAR)
11:04PM -27.8259 153.0134 195° South 106 122 5,000 600 Climbing Aus ATC (RADAR)
11:05PM -27.8613 153.0015 197° South 100 115 5,900 660 Climbing Aus ATC (RADAR)
11:06PM -27.8700 152.9989 195° South 99 114 6,100 480 Climbing Aus ATC (RADAR)
11:07PM -27.9160 152.9837 196° South 105 121 7,000 240 Climbing Aus ATC (RADAR)
11:09PM -27.9691 152.9693 194° South 127 146 7,000  Level Aus ATC (RADAR)
11:11PM -28.0221 152.9488 199° South 128 147 7,000  Level Aus ATC (RADAR)
11:13PM -28.0873 152.9251 198° South 127 146 7,000 -60 Level Aus ATC (RADAR)
11:14PM -28.1385 152.9527 155° Southeast 142 163 6,900 -60 Descending Aus ATC (RADAR)
11:15PM -28.1872 152.9700 163° South 136 157 6,900  Level Aus ATC (RADAR)
11:17PM -28.2392 152.9918 160° South 131 151 6,900  Level Aus ATC (RADAR)
11:17PM -28.2476 152.9961 156° South 131 151 6,900  Level Aus ATC (RADAR)
11:19PM -28.3029 153.0187 160° South 133 153 6,900 -360 Level Aus ATC (RADAR)
11:22PM -28.4127 153.0722 157° South 145 167 5,500 -480 Descending Aus ATC (RADAR)
11:23PM -28.4716 153.0913 164° South 148 170 4,900 -360 Descending Aus ATC (RADAR)
11:23PM -28.4786 153.0940 161° South 130 150 4,900  Level Aus ATC (RADAR)
11:27PM -28.5989 153.1443 160° South 120 138 4,900 -240 Level Aus ATC (RADAR)
11:28PM -28.6447 153.1680 156° South 112 129 3,800 -660 Descending Aus ATC (RADAR)
11:29PM -28.6657 153.1788 156° South 109 125 3,400 -540 Descending Aus ATC (RADAR)
11:32PM -28.7462 153.2181 156° South -1,140 Descending Aus ATC (Calculated)
11:35PM -28.8171 153.2534 156° South  Level Estimated
11:36PM -28.8303 153.2600 156° South  Level Estimated
11:37PM -28.8303 153.2600 North  Level Estimated
11:38PM -28.8303 153.2600 North  Level Estimated
11:39PM -28.8303 153.2600 North  Level Estimated
11:40PM -28.8303 153.2600 North  Level Estimated
11:41PM -28.8303 153.2600 North  Level Estimated